Time;durP1;ratioP1;P1;durP2;ratioP2;P2;SDS_P1;SDS_P2;PMS_P1;PMS_P2;Temp;Humidity;BMP_temperature;BMP_pressure;BME280_temperature;BME280_humidity;BME280_pressure;Samples;Min_cycle;Max_cycle;Signal;HPM_P1;HPM_P2
2021/09/24 00:01:36;;;;;;;16.10;10.30;;;;;;;5.38;99.02;93518.38;5110884;28;20060;-78
2021/09/24 00:04:06;;;;;;;19.85;11.35;;;;;;;5.38;98.09;93530.31;5081464;28;20036;-78
2021/09/24 00:06:33;;;;;;;21.48;11.18;;;;;;;5.37;98.06;93532.06;5072787;28;20060;-78
2021/09/24 00:08:59;;;;;;;19.52;11.50;;;;;;;5.31;97.64;93518.25;5070376;28;20052;-78
2021/09/24 00:11:26;;;;;;;19.98;12.25;;;;;;;5.27;97.66;93517.00;5070293;28;20052;-78
2021/09/24 00:13:53;;;;;;;22.20;13.00;;;;;;;5.14;97.42;93532.06;5070299;28;20044;-78
2021/09/24 00:16:20;;;;;;;21.70;12.25;;;;;;;4.99;98.37;93530.22;5073332;28;20052;-78
2021/09/24 00:18:46;;;;;;;23.90;12.27;;;;;;;4.85;98.83;93498.63;5079504;28;20040;-78
2021/09/24 00:21:15;;;;;;;21.90;12.63;;;;;;;4.98;99.39;93525.28;5080279;28;20039;-78
2021/09/24 00:23:42;;;;;;;23.77;13.40;;;;;;;4.86;100.00;93524.88;5077806;28;20451;-79
2021/09/24 00:26:08;;;;;;;23.10;12.07;;;;;;;4.68;100.00;93519.03;5080958;28;20044;-78
2021/09/24 00:28:35;;;;;;;22.88;11.70;;;;;;;4.42;100.00;93483.69;5080497;28;20066;-78
2021/09/24 00:31:02;;;;;;;18.88;10.73;;;;;;;4.56;100.00;93515.28;5078932;28;20097;-78
2021/09/24 00:33:29;;;;;;;15.07;10.25;;;;;;;4.19;100.00;93531.91;5076511;28;20098;-79
2021/09/24 00:35:56;;;;;;;17.45;10.70;;;;;;;3.83;100.00;93500.03;5080151;28;20048;-78
2021/09/24 00:38:25;;;;;;;14.60;9.88;;;;;;;3.91;100.00;93507.66;5078765;28;20064;-78
2021/09/24 00:40:52;;;;;;;16.83;10.30;;;;;;;4.17;100.00;93514.28;5078638;28;20044;-78
2021/09/24 00:43:20;;;;;;;14.68;9.48;;;;;;;4.30;100.00;93515.53;5080034;28;20493;-78
2021/09/24 00:45:47;;;;;;;13.85;9.60;;;;;;;4.49;100.00;93510.06;5079034;28;20086;-78
2021/09/24 00:48:14;;;;;;;12.75;8.90;;;;;;;4.61;100.00;93505.41;5078569;28;20048;-79
2021/09/24 00:50:41;;;;;;;13.38;8.57;;;;;;;4.68;100.00;93506.31;5071018;28;20048;-78
2021/09/24 00:53:10;;;;;;;11.32;8.57;;;;;;;4.75;100.00;93501.38;5069375;28;20413;-79
2021/09/24 00:55:38;;;;;;;11.80;8.35;;;;;;;4.80;100.00;93496.56;5069026;28;20072;-79
2021/09/24 00:58:05;;;;;;;12.02;8.30;;;;;;;4.84;100.00;93493.69;5069137;28;20048;-79
2021/09/24 01:00:33;;;;;;;13.90;8.52;;;;;;;4.47;100.00;93437.41;5069260;28;20040;-80
2021/09/24 01:03:00;;;;;;;16.25;9.88;;;;;;;4.80;100.00;93485.59;5069297;28;20489;-79
2021/09/24 01:05:28;;;;;;;17.30;9.52;;;;;;;4.67;100.00;93483.59;5069398;28;20055;-79
2021/09/24 01:07:55;;;;;;;19.60;10.27;;;;;;;4.70;100.00;93475.63;5069407;28;20476;-79
2021/09/24 01:10:21;;;;;;;16.92;9.77;;;;;;;4.75;100.00;93480.22;5069162;28;20509;-79
2021/09/24 01:12:50;;;;;;;16.08;9.55;;;;;;;4.61;100.00;93476.63;5069173;28;20045;-79
2021/09/24 01:15:19;;;;;;;15.32;9.05;;;;;;;4.59;100.00;93481.09;5068900;28;20095;-79
2021/09/24 01:17:47;;;;;;;15.32;8.95;;;;;;;4.58;100.00;93472.66;5069175;28;20052;-78
2021/09/24 01:20:16;;;;;;;12.73;8.07;;;;;;;4.62;100.00;93461.19;5069356;28;20507;-78
2021/09/24 01:22:44;;;;;;;10.23;7.82;;;;;;;4.64;100.00;93469.44;5069117;28;21169;-78
2021/09/24 01:25:14;;;;;;;11.13;7.90;;;;;;;4.62;100.00;93451.00;5069362;28;20045;-78
2021/09/24 01:27:41;;;;;;;10.57;6.82;;;;;;;4.75;100.00;93467.47;5068993;28;20040;-77
2021/09/24 01:30:09;;;;;;;13.73;8.57;;;;;;;4.59;100.00;93453.91;5068896;28;20433;-77
2021/09/24 01:32:36;;;;;;;14.88;10.55;;;;;;;4.62;100.00;93463.72;5068752;28;20044;-78
2021/09/24 01:35:06;;;;;;;15.40;9.48;;;;;;;4.54;100.00;93451.84;5069210;28;20071;-78
2021/09/24 01:37:33;;;;;;;21.25;11.65;;;;;;;4.42;100.00;93455.72;5068708;28;20045;-77
2021/09/24 01:40:02;;;;;;;15.55;10.70;;;;;;;4.32;100.00;93461.00;5069122;28;20048;-78
2021/09/24 01:42:28;;;;;;;16.38;11.10;;;;;;;4.36;100.00;93462.25;5069142;28;20044;-77
2021/09/24 01:44:55;;;;;;;13.07;9.32;;;;;;;4.30;100.00;93452.72;5068941;28;20048;-77
2021/09/24 01:47:22;;;;;;;13.40;9.80;;;;;;;4.26;100.00;93452.28;5068989;28;20101;-78
2021/09/24 01:49:49;;;;;;;14.07;9.65;;;;;;;4.33;100.00;93452.41;5068856;28;20048;-78
2021/09/24 01:52:16;;;;;;;12.57;9.63;;;;;;;4.14;100.00;93425.63;5068689;28;20056;-78
2021/09/24 01:54:43;;;;;;;14.95;8.82;;;;;;;4.28;100.00;93449.56;5068699;28;20558;-78
2021/09/24 01:57:11;;;;;;;12.13;8.20;;;;;;;4.15;100.00;93437.38;5068490;28;20558;-78
2021/09/24 01:59:38;;;;;;;10.43;7.57;;;;;;;4.08;100.00;93455.03;5068555;28;20044;-78
2021/09/24 02:02:05;;;;;;;10.95;9.35;;;;;;;4.13;100.00;93452.00;5068670;28;20513;-77
2021/09/24 02:04:32;;;;;;;12.00;9.95;;;;;;;4.13;100.00;93452.00;5068952;28;20055;-77
2021/09/24 02:06:59;;;;;;;9.18;7.30;;;;;;;4.14;100.00;93456.13;5068640;28;20409;-77
2021/09/24 02:09:25;;;;;;;11.50;8.82;;;;;;;4.18;100.00;93454.84;5072788;28;20061;-77
2021/09/24 02:11:52;;;;;;;10.52;8.75;;;;;;;4.23;100.00;93446.72;5072594;28;20447;-78
2021/09/24 02:14:20;;;;;;;10.82;7.60;;;;;;;4.22;100.00;93442.59;5072441;28;20056;-78
2021/09/24 02:16:47;;;;;;;10.45;7.70;;;;;;;4.32;100.00;93457.66;5072169;28;20500;-78
2021/09/24 02:19:14;;;;;;;8.52;7.07;;;;;;;4.31;100.00;93449.25;5072406;28;20060;-78
2021/09/24 02:21:41;;;;;;;10.25;8.15;;;;;;;4.39;100.00;93456.03;5072248;28;20067;-78
2021/09/24 02:24:08;;;;;;;9.43;6.97;;;;;;;4.37;100.00;93447.78;5048796;28;20044;-78
2021/09/24 02:26:35;;;;;;;10.80;7.47;;;;;;;4.39;100.00;93450.94;5072299;28;20515;-78
2021/09/24 02:29:02;;;;;;;9.45;7.53;;;;;;;4.39;100.00;93458.56;5072059;28;20052;-78
2021/09/24 02:31:30;;;;;;;14.32;8.85;;;;;;;4.36;100.00;93449.53;5072354;28;21096;-78
2021/09/24 02:33:58;;;;;;;16.33;10.95;;;;;;;4.36;100.00;93453.84;5072076;28;20045;-78
2021/09/24 02:36:25;;;;;;;14.48;9.98;;;;;;;4.32;100.00;93452.56;5072078;28;20049;-78
2021/09/24 02:38:52;;;;;;;14.68;10.65;;;;;;;4.20;100.00;93436.88;5072177;28;20052;-78
2021/09/24 02:41:19;;;;;;;15.98;10.63;;;;;;;4.20;100.00;93442.75;5071714;28;20109;-78
2021/09/24 02:43:46;;;;;;;14.52;10.82;;;;;;;4.18;100.00;93439.59;5071879;28;20057;-78
2021/09/24 02:46:12;;;;;;;15.07;11.23;;;;;;;4.20;100.00;93441.97;5071712;28;20051;-79
2021/09/24 02:48:41;;;;;;;19.75;12.25;;;;;;;4.13;100.00;93434.22;5072093;28;20055;-79
2021/09/24 02:51:08;;;;;;;16.23;13.18;;;;;;;4.11;100.00;93429.28;5072041;28;20045;-78
2021/09/24 02:53:34;;;;;;;17.45;12.50;;;;;;;4.03;100.00;93410.72;5071683;28;20048;-78
2021/09/24 02:56:01;;;;;;;16.50;11.85;;;;;;;4.13;100.00;93422.28;5071960;28;20048;-78
2021/09/24 02:58:28;;;;;;;15.27;11.32;;;;;;;4.05;100.00;93424.06;5071756;28;20052;-78
2021/09/24 03:00:55;;;;;;;14.50;11.32;;;;;;;3.92;100.00;93407.59;5071675;28;20059;-79
2021/09/24 03:03:22;;;;;;;15.00;11.45;;;;;;;3.94;100.00;93420.13;5071435;28;20520;-79
2021/09/24 03:05:50;;;;;;;15.85;10.20;;;;;;;3.90;100.00;93422.22;5071384;28;20068;-78
2021/09/24 03:08:17;;;;;;;13.00;9.60;;;;;;;3.82;100.00;93428.09;5071427;28;20045;-78
2021/09/24 03:10:44;;;;;;;11.90;9.35;;;;;;;3.95;100.00;93425.06;5071263;28;20055;-79
2021/09/24 03:13:10;;;;;;;11.05;8.73;;;;;;;3.72;100.00;93392.72;5071254;28;20056;-79
2021/09/24 03:15:37;;;;;;;10.73;8.68;;;;;;;3.81;100.00;93426.53;5071134;28;20494;-79
2021/09/24 03:18:04;;;;;;;11.07;8.80;;;;;;;3.69;100.00;93427.78;5071363;28;20052;-79
2021/09/24 03:20:31;;;;;;;11.85;9.30;;;;;;;3.42;100.00;93424.69;5070344;28;20045;-79
2021/09/24 03:23:00;;;;;;;13.85;10.00;;;;;;;3.31;100.00;93418.97;5070928;28;20527;-79
2021/09/24 03:25:27;;;;;;;11.23;8.77;;;;;;;3.36;100.00;93423.56;5071310;28;20048;-79
2021/09/24 03:27:54;;;;;;;11.57;8.98;;;;;;;3.34;100.00;93382.31;5070914;28;20135;-79
2021/09/24 03:30:21;;;;;;;10.88;8.25;;;;;;;3.58;100.00;93406.06;5071148;28;20044;-79
2021/09/24 03:32:48;;;;;;;12.15;9.10;;;;;;;3.71;100.00;93419.06;5071360;28;20052;-78
2021/09/24 03:35:15;;;;;;;9.93;8.38;;;;;;;3.78;100.00;93426.84;5071076;28;20480;-78
2021/09/24 03:37:42;;;;;;;10.13;8.63;;;;;;;3.86;100.00;93423.47;5070676;28;20052;-78
2021/09/24 03:40:13;;;;;;;20.67;13.68;;;;;;;3.83;100.00;93422.06;5071094;28;20049;-78
2021/09/24 03:42:39;;;;;;;17.10;12.05;;;;;;;3.87;100.00;93407.28;5070504;28;20048;-79
2021/09/24 03:45:08;;;;;;;19.20;12.68;;;;;;;3.85;100.00;93407.44;5070819;28;20052;-79
2021/09/24 03:47:35;;;;;;;16.17;10.48;;;;;;;4.00;100.00;93401.69;5070451;28;20086;-79
2021/09/24 03:50:02;;;;;;;14.70;10.77;;;;;;;4.09;100.00;93402.44;5070461;28;20101;-79
2021/09/24 03:52:29;;;;;;;14.63;9.13;;;;;;;4.10;100.00;93401.47;5070458;28;20049;-79
2021/09/24 03:54:56;;;;;;;10.88;8.55;;;;;;;4.23;100.00;93421.31;5070815;28;20055;-79
2021/09/24 03:57:24;;;;;;;11.40;8.23;;;;;;;4.22;100.00;93419.72;5070221;28;20048;-79
2021/09/24 03:59:51;;;;;;;10.43;7.20;;;;;;;4.11;100.00;93411.50;5070346;28;20109;-79
2021/09/24 04:02:18;;;;;;;11.93;9.15;;;;;;;4.24;100.00;93418.59;5070156;28;20056;-78
2021/09/24 04:04:45;;;;;;;10.60;8.18;;;;;;;4.22;100.00;93419.72;5070470;28;20059;-78
2021/09/24 04:07:11;;;;;;;11.65;8.60;;;;;;;4.18;100.00;93414.19;5070369;28;20059;-78
2021/09/24 04:09:38;;;;;;;11.80;9.45;;;;;;;4.20;100.00;93419.06;5069973;28;20098;-78
2021/09/24 04:12:06;;;;;;;13.77;9.02;;;;;;;4.18;100.00;93418.47;5070005;28;20106;-78
2021/09/24 04:14:34;;;;;;;13.25;9.40;;;;;;;4.19;100.00;93413.22;5070281;28;20075;-78
2021/09/24 04:17:01;;;;;;;12.15;9.25;;;;;;;4.16;100.00;93412.75;5069923;28;20127;-78
2021/09/24 04:19:28;;;;;;;14.50;8.75;;;;;;;4.25;100.00;93419.38;5069833;28;20516;-79
2021/09/24 04:21:54;;;;;;;12.35;9.25;;;;;;;4.13;100.00;93399.41;5070047;28;20488;-78
2021/09/24 04:24:21;;;;;;;12.90;8.80;;;;;;;4.21;100.00;93423.22;5080042;28;20056;-78
2021/09/24 04:26:48;;;;;;;12.27;8.80;;;;;;;4.12;100.00;93405.44;5088561;28;20044;-78
2021/09/24 04:29:15;;;;;;;13.27;8.90;;;;;;;4.22;100.00;93429.91;5089366;28;20051;-78
2021/09/24 04:31:43;;;;;;;14.23;9.15;;;;;;;4.17;100.00;93432.13;5099883;28;20051;-78
2021/09/24 04:34:10;;;;;;;14.38;10.50;;;;;;;4.11;100.00;93420.84;5095840;28;20048;-79
2021/09/24 04:36:37;;;;;;;14.07;9.40;;;;;;;4.07;100.00;93422.16;5093821;28;20059;-80
2021/09/24 04:39:04;;;;;;;15.95;10.65;;;;;;;3.85;100.00;93419.38;5089200;28;20059;-80
2021/09/24 04:41:31;;;;;;;26.25;18.00;;;;;;;3.82;100.00;93420.47;5090202;28;20051;-79
2021/09/24 04:43:58;;;;;;;20.05;13.77;;;;;;;3.80;100.00;93416.50;5090254;28;20117;-78
2021/09/24 04:46:25;;;;;;;15.85;11.45;;;;;;;3.85;100.00;93419.38;5089834;28;20093;-78
2021/09/24 04:48:53;;;;;;;18.92;12.43;;;;;;;4.03;100.00;93413.28;5089788;28;20052;-78
2021/09/24 04:51:20;;;;;;;19.27;12.23;;;;;;;4.20;100.00;93419.06;5089787;28;20055;-78
2021/09/24 04:53:47;;;;;;;24.25;15.32;;;;;;;4.08;100.00;93396.56;5089744;28;20051;-78
2021/09/24 04:56:14;;;;;;;20.88;14.75;;;;;;;4.35;100.00;93409.78;5089730;28;20052;-78
2021/09/24 04:58:41;;;;;;;18.27;13.85;;;;;;;4.46;100.00;93413.75;5089497;28;20519;-78
2021/09/24 05:01:08;;;;;;;25.10;16.42;;;;;;;4.59;100.00;93407.31;5089456;28;20708;-80
2021/09/24 05:03:34;;;;;;;30.80;19.17;;;;;;;4.19;100.00;93403.03;5065720;28;20546;-78
2021/09/24 05:06:03;;;;;;;35.25;23.02;;;;;;;4.22;100.00;93395.06;5089121;28;20519;-78
2021/09/24 05:08:30;;;;;;;82.55;46.90;;;;;;;4.12;100.00;93400.34;5089452;28;20098;-79
2021/09/24 05:10:58;;;;;;;85.65;53.08;;;;;;;3.78;100.00;93388.72;5089397;28;20052;-79
2021/09/24 05:13:24;;;;;;;33.05;21.65;;;;;;;3.67;100.00;93400.03;5089116;28;20535;-79
2021/09/24 05:15:51;;;;;;;57.42;35.78;;;;;;;3.84;100.00;93394.91;5089191;28;20048;-79
2021/09/24 05:18:18;;;;;;;39.25;24.92;;;;;;;4.05;100.00;93408.81;5088926;28;20043;-79
2021/09/24 05:20:45;;;;;;;41.45;25.67;;;;;;;3.79;100.00;93395.38;5089079;28;20048;-78
2021/09/24 05:23:13;;;;;;;34.85;21.25;;;;;;;3.70;100.00;93386.22;5089619;28;20071;-79
2021/09/24 05:25:40;;;;;;;29.73;18.67;;;;;;;4.06;100.00;93408.66;5089599;28;20048;-81
2021/09/24 05:28:07;;;;;;;29.25;19.23;;;;;;;4.12;100.00;93405.44;5089339;28;20071;-79
2021/09/24 05:30:34;;;;;;;34.47;22.13;;;;;;;4.26;100.00;93400.63;5089209;28;20047;-78
2021/09/24 05:33:00;;;;;;;33.30;18.58;;;;;;;4.56;100.00;93410.97;5089074;28;20552;-78
2021/09/24 05:35:27;;;;;;;30.00;18.48;;;;;;;4.63;100.00;93414.44;5089017;28;20094;-79
2021/09/24 05:37:54;;;;;;;26.45;16.90;;;;;;;4.76;100.00;93418.16;5088852;28;20055;-79
2021/09/24 05:40:23;;;;;;;28.85;17.55;;;;;;;4.19;100.00;93386.97;5089210;28;20048;-80
2021/09/24 05:42:51;;;;;;;29.85;17.63;;;;;;;4.12;100.00;93430.88;5090332;28;20469;-80
2021/09/24 05:45:20;;;;;;;27.38;17.60;;;;;;;4.07;100.00;93397.53;5093284;28;20040;-80
2021/09/24 05:47:47;;;;;;;29.40;17.25;;;;;;;4.40;100.00;93429.66;5093438;28;20538;-81
2021/09/24 05:50:14;;;;;;;32.50;18.90;;;;;;;4.51;100.00;93421.66;5093249;28;20048;-82
2021/09/24 05:52:43;;;;;;;51.15;33.47;;;;;;;4.69;100.00;93418.06;5093026;28;20048;-81
2021/09/24 05:55:11;;;;;;;33.85;20.48;;;;;;;5.01;100.00;93406.09;5092831;28;20048;-81
2021/09/24 05:57:40;;;;;;;28.55;17.48;;;;;;;5.48;100.00;93398.41;5093456;28;20044;-81
2021/09/24 06:00:09;;;;;;;24.42;14.88;;;;;;;5.93;100.00;93398.41;5093114;28;20048;-81
2021/09/24 06:02:36;;;;;;;20.65;14.02;;;;;;;6.35;100.00;93395.44;5092967;28;20052;-81
2021/09/24 06:05:03;;;;;;;25.27;16.08;;;;;;;6.65;100.00;93390.25;5092692;28;20044;-81
2021/09/24 06:07:30;;;;;;;23.88;15.52;;;;;;;6.97;100.00;93397.63;5092622;28;20048;-81
2021/09/24 06:09:57;;;;;;;27.67;15.82;;;;;;;7.20;100.00;93393.13;5092430;28;20051;-81
2021/09/24 06:12:25;;;;;;;25.63;14.90;;;;;;;7.31;100.00;93393.63;5092496;28;20048;-81
2021/09/24 06:14:54;;;;;;;24.63;15.30;;;;;;;7.46;100.00;93391.75;5092871;28;20092;-81
2021/09/24 06:17:21;;;;;;;24.17;15.32;;;;;;;7.67;100.00;93387.56;5092863;28;20075;-82
2021/09/24 06:19:48;;;;;;;24.90;14.95;;;;;;;7.74;100.00;93382.50;5092369;28;20052;-81
2021/09/24 06:22:15;;;;;;;25.48;15.65;;;;;;;7.75;100.00;93384.88;5092303;28;20048;-81
2021/09/24 06:24:44;;;;;;;25.05;14.82;;;;;;;7.91;100.00;93388.09;5092476;28;20113;-81
2021/09/24 06:27:14;;;;;;;21.77;13.52;;;;;;;7.88;100.00;93381.59;5092655;28;20052;-82
2021/09/24 06:29:41;;;;;;;20.95;14.10;;;;;;;8.08;100.00;93396.28;5092454;28;20040;-81
2021/09/24 06:32:10;;;;;;;23.70;14.95;;;;;;;8.11;100.00;93377.19;5092185;28;20048;-81
2021/09/24 06:34:37;;;;;;;22.75;14.23;;;;;;;8.20;100.00;93363.22;5091924;28;20060;-81
2021/09/24 06:37:04;;;;;;;20.85;13.60;;;;;;;8.74;100.00;93399.28;5092305;28;20508;-80
2021/09/24 06:39:31;;;;;;;22.30;13.25;;;;;;;9.02;100.00;93395.81;5094242;28;20048;-81
2021/09/24 06:41:58;;;;;;;25.13;13.85;;;;;;;8.74;97.23;93314.00;5094264;28;20051;-81
2021/09/24 06:44:25;;;;;;;21.20;14.13;;;;;;;9.44;96.70;93361.53;5091754;28;20412;-81
2021/09/24 06:46:52;;;;;;;24.50;13.63;;;;;;;10.00;96.90;93395.38;5092129;28;20393;-81
2021/09/24 06:49:22;;;;;;;17.83;10.52;;;;;;;10.14;93.96;93362.78;5091922;28;20063;-81
2021/09/24 06:51:49;;;;;;;16.40;9.65;;;;;;;10.53;91.69;93379.03;5091740;28;20044;-81
2021/09/24 06:54:17;;;;;;;11.70;6.78;;;;;;;10.81;87.81;93375.34;5090578;28;20067;-82
2021/09/24 06:56:44;;;;;;;8.55;4.25;;;;;;;11.18;84.04;93384.19;5091475;28;20055;-80
2021/09/24 06:59:11;;;;;;;6.70;3.55;;;;;;;11.57;81.48;93408.03;5091547;28;20051;-80
2021/09/24 07:01:38;;;;;;;5.63;3.70;;;;;;;11.68;78.92;93377.47;5091323;28;20059;-81
2021/09/24 07:04:05;;;;;;;4.63;3.25;;;;;;;11.88;77.88;93364.41;5091727;28;20044;-80
2021/09/24 07:06:33;;;;;;;6.20;3.10;;;;;;;12.31;76.87;93385.19;5091457;28;20056;-80
2021/09/24 07:09:00;;;;;;;5.93;3.90;;;;;;;12.48;76.25;93378.44;5091978;28;20044;-81
2021/09/24 07:11:28;;;;;;;5.95;3.45;;;;;;;12.26;72.35;93318.84;5091687;28;20074;-81
2021/09/24 07:13:55;;;;;;;6.95;3.50;;;;;;;12.82;73.02;93365.13;5091692;28;20602;-81
2021/09/24 07:16:21;;;;;;;5.85;3.60;;;;;;;13.16;72.52;93391.25;5091425;28;20047;-80
2021/09/24 07:18:48;;;;;;;5.10;3.22;;;;;;;13.35;70.78;93379.06;5091240;28;20048;-81
2021/09/24 07:21:15;;;;;;;4.80;2.47;;;;;;;13.46;69.35;93380.09;5091262;28;20572;-80
2021/09/24 07:23:44;;;;;;;5.65;2.92;;;;;;;13.50;68.80;93357.22;5091149;28;20055;-81
2021/09/24 07:26:11;;;;;;;5.10;2.90;;;;;;;13.66;67.52;93360.13;5091401;28;20044;-80
2021/09/24 07:28:37;;;;;;;4.30;2.63;;;;;;;13.90;67.34;93353.94;5091365;28;20059;-80
2021/09/24 07:31:04;;;;;;;6.90;2.63;;;;;;;13.99;63.72;93372.44;5091842;28;20052;-80
2021/09/24 07:33:31;;;;;;;5.72;2.70;;;;;;;14.22;64.62;93372.66;5091273;28;20044;-81
2021/09/24 07:35:58;;;;;;;6.55;2.80;;;;;;;14.43;65.48;93366.88;5090798;28;20606;-81
2021/09/24 07:38:24;;;;;;;3.85;1.85;;;;;;;14.60;63.30;93363.56;5091113;28;20040;-81
2021/09/24 07:40:53;;;;;;;5.78;2.80;;;;;;;14.70;62.63;93355.19;5090637;28;20056;-81
2021/09/24 07:43:20;;;;;;;8.25;2.97;;;;;;;15.06;61.73;93371.38;5091038;28;20115;-81
2021/09/24 07:45:47;;;;;;;3.60;2.45;;;;;;;15.22;59.81;93377.59;5090959;28;20134;-81
2021/09/24 07:48:14;;;;;;;4.63;2.35;;;;;;;15.45;59.46;93375.06;5090964;28;20044;-82
2021/09/24 07:50:41;;;;;;;3.30;2.30;;;;;;;15.57;57.22;93380.97;5090833;28;20416;-81
2021/09/24 07:53:08;;;;;;;2.58;1.95;;;;;;;15.77;56.62;93390.03;5090815;28;20408;-81
2021/09/24 07:55:35;;;;;;;3.35;2.15;;;;;;;15.85;55.08;93387.06;5090515;28;20121;-80
2021/09/24 07:58:03;;;;;;;3.08;2.13;;;;;;;15.93;54.18;93391.09;5090186;28;20559;-81
2021/09/24 08:00:30;;;;;;;4.85;2.20;;;;;;;15.57;55.09;93326.59;5090225;28;20055;-82
2021/09/24 08:02:58;;;;;;;3.22;2.17;;;;;;;15.99;53.56;93400.50;5090292;28;20044;-81
2021/09/24 08:05:26;;;;;;;2.88;1.80;;;;;;;16.20;54.42;93398.16;5090090;28;20059;-81
2021/09/24 08:07:53;;;;;;;4.22;2.10;;;;;;;16.26;53.66;93388.66;5090618;28;20055;-81
2021/09/24 08:10:20;;;;;;;4.78;1.73;;;;;;;16.39;51.71;93393.47;5090611;28;20101;-82
2021/09/24 08:12:47;;;;;;;2.88;1.90;;;;;;;16.41;52.10;93383.66;5090376;28;20054;-81
2021/09/24 08:15:16;;;;;;;3.13;1.73;;;;;;;16.40;50.91;93376.13;5090440;28;20048;-81
2021/09/24 08:17:43;;;;;;;2.95;1.92;;;;;;;16.58;52.21;93393.19;5090392;28;20156;-81
2021/09/24 08:20:11;;;;;;;4.55;2.33;;;;;;;16.76;52.29;93392.06;5080156;28;20467;-81
2021/09/24 08:22:39;;;;;;;5.80;2.20;;;;;;;16.81;52.46;93358.38;5081535;28;20413;-81
2021/09/24 08:25:07;;;;;;;3.67;2.50;;;;;;;17.05;51.06;93373.72;5078477;28;20075;-81
2021/09/24 08:27:34;;;;;;;4.15;2.33;;;;;;;17.13;49.91;93374.28;5079469;28;20048;-81
2021/09/24 08:30:02;;;;;;;3.25;2.13;;;;;;;17.32;49.97;93361.72;5079302;28;20094;-82
2021/09/24 08:32:32;;;;;;;4.15;2.05;;;;;;;17.36;48.03;93355.78;5080623;28;20132;-81
2021/09/24 08:34:58;;;;;;;6.40;2.80;;;;;;;17.00;48.13;93276.84;5079478;28;20055;-81
2021/09/24 08:37:25;;;;;;;3.67;1.90;;;;;;;17.59;48.50;93335.69;5082637;28;20052;-81
2021/09/24 08:39:52;;;;;;;5.22;2.10;;;;;;;17.86;46.87;93339.22;5083395;28;20454;-81
2021/09/24 08:42:19;;;;;;;3.92;1.73;;;;;;;17.92;45.59;93348.63;5079296;28;20048;-81
2021/09/24 08:44:49;;;;;;;2.97;1.77;;;;;;;18.03;45.33;93321.66;5080327;28;20048;-81
2021/09/24 08:47:16;;;;;;;3.50;1.90;;;;;;;18.30;44.36;93336.31;5078399;28;20132;-81
2021/09/24 08:49:45;;;;;;;2.13;1.35;;;;;;;18.32;40.93;93328.28;5070698;28;20119;-80
2021/09/24 08:52:13;;;;;;;2.90;1.80;;;;;;;18.49;43.50;93337.69;5069139;28;20548;-81
2021/09/24 08:54:40;;;;;;;2.60;1.63;;;;;;;18.60;42.91;93341.88;5087491;28;20096;-81
2021/09/24 08:57:11;;;;;;;3.50;1.98;;;;;;;18.70;42.00;93341.13;5089384;28;20051;-81
2021/09/24 08:59:38;;;;;;;2.80;1.77;;;;;;;18.79;41.73;93349.22;5100157;28;20051;-81
2021/09/24 09:02:08;;;;;;;3.60;2.03;;;;;;;18.77;42.77;93333.06;5107922;28;20039;-81
2021/09/24 09:04:37;;;;;;;6.57;2.63;;;;;;;18.98;41.99;93351.34;5076956;28;20053;-81
2021/09/24 09:07:07;;;;;;;3.65;1.73;;;;;;;18.92;41.69;93321.91;5068903;28;20044;-82
2021/09/24 09:09:34;;;;;;;2.92;1.58;;;;;;;19.03;41.57;93330.53;5069353;28;20052;-81
2021/09/24 09:12:10;;;;;;;3.90;1.38;;;;;;;19.12;42.63;93346.44;5094392;28;20051;-82
2021/09/24 09:14:37;;;;;;;;;;;;;;;19.29;41.90;93340.94;5109729;28;20044;-81
2021/09/24 09:17:25;;;;;;;4.55;1.70;;;;;;;19.26;41.23;93331.88;5109195;28;19984;-81
2021/09/24 09:20:11;;;;;;;5.80;1.67;;;;;;;19.23;41.27;93316.75;5109413;28;20504;-82
2021/09/24 09:22:40;;;;;;;4.05;1.80;;;;;;;19.27;40.44;93311.78;5109152;28;20511;-81
2021/09/24 09:25:13;;;;;;;5.22;1.90;;;;;;;19.45;40.92;93331.31;5109512;28;20523;-80
2021/09/24 09:27:48;;;;;;;3.10;1.58;;;;;;;19.63;40.92;93325.56;5109751;28;20044;-80
2021/09/24 09:30:16;;;;;;;3.42;1.48;;;;;;;19.65;41.63;93291.44;5109333;28;20048;-81
2021/09/24 09:32:45;;;;;;;3.05;1.90;;;;;;;19.95;38.81;93315.09;5109465;28;20043;-80
2021/09/24 09:35:13;;;;;;;2.95;1.50;;;;;;;20.03;38.49;93324.97;5109142;28;20093;-81
2021/09/24 09:37:41;;;;;;;6.32;1.88;;;;;;;20.11;37.35;93314.00;5109575;28;20044;-81
2021/09/24 09:40:13;;;;;;;2.53;1.35;;;;;;;20.23;37.05;93308.47;5109465;28;20104;-80
2021/09/24 09:42:42;;;;;;;2.20;1.50;;;;;;;20.57;35.74;93322.69;5109722;28;20054;-81
2021/09/24 09:45:11;;;;;;;3.17;1.73;;;;;;;20.65;35.57;93322.09;5109696;28;20109;-81
2021/09/24 09:47:40;;;;;;;3.55;1.55;;;;;;;20.78;31.92;93319.97;5104252;28;20067;-82
2021/09/24 09:50:10;;;;;;;5.80;3.13;;;;;;;20.92;33.48;93326.16;5088812;28;20484;-81
2021/09/24 09:53:03;;;;;;;8.20;2.83;;;;;;;21.10;31.57;93318.72;5089010;28;20044;-80
2021/09/24 09:55:31;;;;;;;7.00;2.60;;;;;;;21.26;35.32;93321.22;5088805;28;20106;-80
2021/09/24 09:58:00;;;;;;;2.25;1.33;;;;;;;21.31;34.29;93302.88;5080818;28;20055;-81
2021/09/24 10:00:28;;;;;;;3.20;1.15;;;;;;;21.63;33.04;93315.38;5078996;28;20052;-80
2021/09/24 10:03:04;;;;;;;3.42;1.58;;;;;;;21.68;29.00;93317.19;5088974;28;20145;-80
2021/09/24 10:05:38;;;;;;;3.40;1.27;;;;;;;21.72;33.28;93301.75;5088772;28;20051;-80
2021/09/24 10:08:24;;;;;;;2.70;1.60;;;;;;;21.76;31.22;93315.84;5089397;28;20542;-81
2021/09/24 10:11:04;;;;;;;4.40;1.50;;;;;;;21.92;33.39;93305.19;5089905;28;20097;-81
2021/09/24 10:13:36;;;;;;;3.35;1.50;;;;;;;22.16;33.39;93305.19;5080383;28;20467;-81
2021/09/24 10:16:05;;;;;;;3.08;1.23;;;;;;;22.23;32.94;93305.66;5088529;28;20052;-81
2021/09/24 10:18:33;;;;;;;3.85;1.50;;;;;;;22.32;30.60;93300.56;5088556;28;20558;-81
2021/09/24 10:21:00;;;;;;;3.15;1.20;;;;;;;22.41;31.91;93319.81;5088752;28;20048;-81
2021/09/24 10:23:28;;;;;;;2.33;1.27;;;;;;;22.42;31.80;93317.97;5088807;28;20044;-81
2021/09/24 10:26:09;;;;;;;3.78;1.63;;;;;;;22.59;33.20;93314.13;5088767;28;20526;-82
2021/09/24 10:28:39;;;;;;;3.15;1.60;;;;;;;22.72;32.69;93320.50;5075599;28;20044;-81
2021/09/24 10:31:16;;;;;;;1.85;1.23;;;;;;;22.71;32.39;93308.47;5074495;28;20089;-81
2021/09/24 10:34:02;;;;;;;;;;;;;;;;;;;;;
2021/09/24 10:36:39;;;;;;;;;;;;;;;22.85;30.79;93308.53;5073537;28;20050;-84
2021/09/24 10:39:44;;;;;;;3.47;1.33;;;;;;;22.44;30.57;93313.22;5083152;28;19919;-82
2021/09/24 10:42:22;;;;;;;3.85;1.50;;;;;;;22.31;31.89;93298.22;5076964;28;20048;-83
2021/09/24 10:44:58;;;;;;;2.47;1.38;;;;;;;22.35;30.34;93284.28;5072236;28;20049;-82
2021/09/24 10:47:47;;;;;;;2.40;1.15;;;;;;;22.50;30.11;93285.16;5072020;28;20053;-82
2021/09/24 10:50:59;;;;;;;1.98;1.10;;;;;;;21.31;29.15;93300.25;5072092;28;20090;-82
2021/09/24 10:53:29;;;;;;;3.10;1.52;;;;;;;20.69;32.14;93273.53;5071984;28;20444;-81
2021/09/24 10:56:30;;;;;;;2.80;1.40;;;;;;;21.23;29.68;93288.56;5071952;28;20425;-83
2021/09/24 10:58:57;;;;;;;4.10;2.00;;;;;;;21.41;32.77;93289.72;5091619;28;20460;-82
2021/09/24 11:01:39;;;;;;;3.33;1.35;;;;;;;21.15;30.26;93282.09;5091473;28;20048;-82
2021/09/24 11:04:14;;;;;;;2.60;1.35;;;;;;;21.13;32.03;93288.66;5091148;28;20105;-82
2021/09/24 11:06:44;;;;;;;3.20;1.45;;;;;;;20.95;29.85;93267.38;5091834;28;20054;-82
2021/09/24 11:09:13;;;;;;;2.67;1.35;;;;;;;20.92;30.63;93260.09;5091716;28;20052;-82
2021/09/24 11:11:43;;;;;;;2.53;1.20;;;;;;;21.46;33.95;93262.75;5091802;28;20097;-82
2021/09/24 11:14:33;;;;;;;3.05;1.25;;;;;;;21.89;33.46;93252.41;5094987;28;20100;-83
2021/09/24 11:17:02;;;;;;;2.85;1.50;;;;;;;22.04;33.18;93242.84;5111937;28;20040;-83
2021/09/24 11:19:41;;;;;;;3.75;1.48;;;;;;;22.35;33.77;93250.28;5111833;28;20051;-82
2021/09/24 11:22:15;;;;;;;3.00;1.70;;;;;;;22.68;32.99;93239.13;5111939;28;20052;-82
2021/09/24 11:24:45;;;;;;;3.35;1.45;;;;;;;22.78;29.54;93227.72;5112179;28;20056;-81
2021/09/24 11:27:16;;;;;;;3.83;1.35;;;;;;;23.14;31.22;93239.47;5111989;28;20044;-81
2021/09/24 11:30:13;;;;;;;2.35;1.65;;;;;;;23.32;31.81;93227.38;5111875;28;20040;-81
2021/09/24 11:32:41;;;;;;;2.70;1.50;;;;;;;23.51;31.65;93234.41;5111665;28;20461;-81
2021/09/24 11:35:09;;;;;;;5.97;1.80;;;;;;;23.45;31.13;93225.84;5111874;28;20052;-80